createdAt,value
2017-09-24T00:01:04.468Z,9.13
2017-09-24T00:03:30.905Z,9.70
2017-09-24T00:05:58.115Z,10.13
2017-09-24T00:08:25.417Z,10.45
2017-09-24T00:10:51.886Z,10.70
2017-09-24T00:13:18.374Z,9.48
2017-09-24T00:15:44.814Z,9.88
2017-09-24T00:18:11.238Z,9.68
2017-09-24T00:20:37.701Z,10.07
2017-09-24T00:23:04.209Z,10.00
2017-09-24T00:25:31.381Z,9.02
2017-09-24T00:27:57.842Z,11.02
2017-09-24T00:30:24.346Z,11.00
2017-09-24T00:32:50.832Z,9.85
2017-09-24T00:35:17.280Z,10.35
2017-09-24T00:37:44.503Z,10.93
2017-09-24T00:40:11.624Z,10.07
2017-09-24T00:42:38.520Z,10.10
2017-09-24T00:45:05.065Z,10.25
2017-09-24T00:47:31.548Z,10.38
2017-09-24T00:49:57.989Z,10.82
2017-09-24T00:52:24.460Z,11.38
2017-09-24T00:54:50.924Z,10.90
2017-09-24T00:57:17.439Z,10.52
2017-09-24T00:59:43.961Z,10.05
2017-09-24T01:02:10.526Z,11.25
2017-09-24T01:04:36.948Z,10.70
2017-09-24T01:07:03.378Z,11.50
2017-09-24T01:09:29.838Z,11.80
2017-09-24T01:11:56.274Z,10.77
2017-09-24T01:14:22.722Z,11.07
2017-09-24T01:16:49.187Z,12.65
2017-09-24T01:19:15.720Z,13.75
2017-09-24T01:21:42.925Z,13.95
2017-09-24T01:24:09.410Z,15.05
2017-09-24T01:26:35.915Z,14.55
2017-09-24T01:29:02.397Z,14.20
2017-09-24T01:31:28.926Z,14.98
2017-09-24T01:33:55.438Z,12.23
2017-09-24T01:36:22.664Z,11.02
2017-09-24T01:38:49.161Z,12.32
2017-09-24T01:41:16.568Z,13.43
2017-09-24T01:43:43.825Z,12.48
2017-09-24T01:46:11.043Z,13.70
2017-09-24T01:48:37.597Z,12.45
2017-09-24T01:51:04.077Z,12.15
2017-09-24T01:53:30.553Z,11.85
2017-09-24T01:55:57.049Z,11.75
2017-09-24T01:58:23.505Z,11.05
2017-09-24T02:00:49.970Z,11.98
2017-09-24T02:03:16.467Z,13.05
2017-09-24T02:05:42.910Z,11.12
2017-09-24T02:08:09.341Z,11.30
2017-09-24T02:10:35.810Z,11.05
2017-09-24T02:13:02.233Z,10.98
2017-09-24T02:15:28.645Z,10.88
2017-09-24T02:17:55.102Z,9.82
2017-09-24T02:20:21.530Z,10.15
2017-09-24T02:22:47.966Z,9.50
2017-09-24T02:25:14.394Z,10.70
2017-09-24T02:27:40.826Z,9.70
2017-09-24T02:30:07.242Z,10.15
2017-09-24T02:32:33.676Z,10.77
2017-09-24T02:35:00.106Z,11.75
2017-09-24T02:37:26.510Z,11.10
2017-09-24T02:39:52.989Z,11.20
2017-09-24T02:42:19.405Z,12.57
2017-09-24T02:44:45.845Z,11.10
2017-09-24T02:47:12.298Z,12.63
2017-09-24T02:49:39.485Z,11.98
2017-09-24T02:52:06.726Z,12.20
2017-09-24T02:54:33.900Z,11.45
2017-09-24T02:57:00.340Z,12.00
2017-09-24T02:59:26.748Z,12.70
2017-09-24T03:01:53.929Z,10.20
2017-09-24T03:04:20.352Z,10.80
2017-09-24T03:06:46.801Z,10.43
2017-09-24T03:09:13.205Z,10.20
2017-09-24T03:11:40.384Z,10.07
2017-09-24T03:14:06.782Z,9.40
2017-09-24T03:16:33.924Z,9.43
2017-09-24T03:19:01.093Z,11.43
2017-09-24T03:21:27.557Z,11.15
2017-09-24T03:23:54.009Z,9.23
2017-09-24T03:26:21.255Z,10.02
2017-09-24T03:28:48.401Z,9.80
2017-09-24T03:31:14.838Z,11.05
2017-09-24T03:33:41.283Z,9.25
2017-09-24T03:36:07.709Z,10.07
2017-09-24T03:38:34.929Z,10.13
2017-09-24T03:41:01.320Z,10.90
2017-09-24T03:43:27.714Z,10.73
2017-09-24T03:45:54.143Z,9.93
2017-09-24T03:48:20.569Z,9.77
2017-09-24T03:50:47.026Z,10.55
2017-09-24T03:53:13.474Z,10.38
2017-09-24T03:55:39.874Z,11.48
2017-09-24T03:58:06.312Z,9.93
2017-09-24T04:00:32.730Z,9.85
2017-09-24T04:02:59.168Z,12.45
2017-09-24T04:05:25.600Z,11.20
2017-09-24T04:07:51.992Z,11.52
2017-09-24T04:10:18.429Z,10.73
2017-09-24T04:12:44.877Z,11.23
2017-09-24T04:15:11.305Z,10.25
2017-09-24T04:17:37.707Z,12.15
2017-09-24T04:20:04.886Z,11.43
2017-09-24T04:22:31.338Z,10.60
2017-09-24T04:24:57.789Z,11.60
2017-09-24T04:27:24.197Z,11.70
2017-09-24T04:29:50.659Z,11.30
2017-09-24T04:32:17.089Z,9.98
2017-09-24T04:34:43.516Z,11.07
2017-09-24T04:37:09.974Z,11.45
2017-09-24T04:39:36.409Z,9.98
2017-09-24T04:42:02.844Z,11.10
2017-09-24T04:44:29.264Z,11.60
2017-09-24T04:46:55.689Z,12.35
2017-09-24T04:49:22.113Z,11.32
2017-09-24T04:51:48.545Z,11.00
2017-09-24T04:54:14.982Z,10.40
2017-09-24T04:56:42.278Z,11.68
2017-09-24T04:59:09.439Z,10.13
2017-09-24T05:01:35.861Z,11.48
2017-09-24T05:04:03.033Z,10.15
2017-09-24T05:06:29.436Z,14.45
2017-09-24T05:08:56.624Z,10.20
2017-09-24T05:11:23.028Z,11.75
2017-09-24T05:13:50.174Z,11.38
2017-09-24T05:16:17.336Z,11.32
2017-09-24T05:18:43.788Z,11.50
2017-09-24T05:21:10.194Z,11.50
2017-09-24T05:23:37.327Z,11.12
2017-09-24T05:26:03.753Z,11.15
2017-09-24T05:28:30.183Z,11.15
2017-09-24T05:30:57.377Z,15.30
2017-09-24T05:33:23.853Z,13.57
2017-09-24T05:35:50.260Z,12.27
2017-09-24T05:38:16.648Z,11.63
2017-09-24T05:40:43.821Z,12.60
2017-09-24T05:43:10.281Z,11.85
2017-09-24T05:45:36.694Z,14.30
2017-09-24T05:48:03.161Z,14.45
2017-09-24T05:50:29.561Z,14.10
2017-09-24T05:52:56.110Z,13.40
2017-09-24T05:55:22.525Z,12.48
2017-09-24T05:57:48.945Z,11.20
2017-09-24T06:00:15.394Z,12.77
2017-09-24T06:02:41.785Z,11.25
2017-09-24T06:05:08.974Z,12.15
2017-09-24T06:07:35.406Z,12.88
2017-09-24T06:10:01.888Z,12.80
2017-09-24T06:12:29.136Z,12.20
2017-09-24T06:14:55.596Z,10.93
2017-09-24T06:17:22.765Z,11.15
2017-09-24T06:19:49.217Z,13.30
2017-09-24T06:22:15.657Z,12.40
2017-09-24T06:24:42.093Z,13.38
2017-09-24T06:27:08.506Z,15.63
2017-09-24T06:29:35.021Z,14.60
2017-09-24T06:32:02.184Z,15.75
2017-09-24T06:34:28.667Z,14.82
2017-09-24T06:36:55.133Z,14.93
2017-09-24T06:39:22.385Z,12.93
2017-09-24T06:41:49.589Z,29.87
2017-09-24T06:44:16.061Z,27.02
2017-09-24T06:46:42.576Z,15.07
2017-09-24T06:49:08.989Z,14.30
2017-09-24T06:51:35.457Z,12.35
2017-09-24T06:54:01.935Z,13.20
2017-09-24T06:56:28.384Z,13.90
2017-09-24T06:58:54.799Z,13.85
2017-09-24T07:01:22.358Z,16.08
2017-09-24T07:03:48.854Z,15.35
2017-09-24T07:06:15.325Z,16.90
2017-09-24T07:08:41.813Z,15.25
2017-09-24T07:11:08.222Z,14.70
2017-09-24T07:13:34.667Z,15.40
2017-09-24T07:16:01.074Z,15.43
2017-09-24T07:18:27.526Z,18.15
2017-09-24T07:20:54.177Z,19.37
2017-09-24T07:23:20.574Z,17.60
2017-09-24T07:25:47.045Z,17.12
2017-09-24T07:28:14.233Z,17.10
2017-09-24T07:30:40.745Z,17.20
2017-09-24T07:33:07.914Z,17.83
2017-09-24T07:35:34.345Z,16.30
2017-09-24T07:38:00.805Z,15.00
2017-09-24T07:40:27.262Z,13.95
2017-09-24T07:42:53.718Z,16.05
2017-09-24T07:45:20.925Z,16.35
2017-09-24T07:47:47.325Z,14.25
2017-09-24T07:50:13.796Z,15.68
2017-09-24T07:52:40.230Z,18.25
2017-09-24T07:55:07.485Z,16.02
2017-09-24T07:57:33.946Z,16.37
2017-09-24T08:00:01.097Z,14.45
2017-09-24T08:02:27.568Z,15.45
2017-09-24T08:04:53.994Z,18.05
2017-09-24T08:07:20.456Z,20.42
2017-09-24T08:09:46.871Z,18.10
2017-09-24T08:12:13.300Z,18.60
2017-09-24T08:14:39.754Z,17.23
2017-09-24T08:17:06.196Z,16.08
2017-09-24T08:19:32.664Z,19.05
2017-09-24T08:21:59.872Z,16.75
2017-09-24T08:24:26.285Z,21.42
2017-09-24T08:26:52.708Z,18.45
2017-09-24T08:29:19.137Z,19.92
2017-09-24T08:31:45.599Z,18.45
2017-09-24T08:34:12.010Z,16.58
2017-09-24T08:36:38.448Z,17.60
2017-09-24T08:39:05.028Z,18.33
2017-09-24T08:41:32.228Z,19.77
2017-09-24T08:43:58.649Z,22.42
2017-09-24T08:46:25.145Z,19.40
2017-09-24T08:48:51.661Z,18.83
2017-09-24T08:51:18.192Z,18.15
2017-09-24T08:53:44.612Z,18.95
2017-09-24T08:56:11.019Z,17.35
2017-09-24T08:58:38.272Z,16.92
2017-09-24T09:01:05.485Z,20.12
2017-09-24T09:03:31.939Z,24.25
2017-09-24T09:05:59.098Z,27.40
2017-09-24T09:08:25.577Z,26.27
2017-09-24T09:10:51.986Z,23.77
2017-09-24T09:13:18.452Z,20.85
2017-09-24T09:15:44.866Z,27.85
2017-09-24T09:18:11.277Z,23.75
2017-09-24T09:20:37.765Z,27.85
2017-09-24T09:23:04.209Z,29.35
2017-09-24T09:25:30.620Z,35.05
2017-09-24T09:27:57.075Z,27.98
2017-09-24T09:30:23.510Z,29.60
2017-09-24T09:32:50.031Z,30.10
2017-09-24T09:35:17.205Z,20.67
2017-09-24T09:37:43.637Z,27.13
2017-09-24T09:40:10.810Z,21.90
2017-09-24T09:42:37.313Z,27.02
2017-09-24T09:45:13.565Z,24.77
2017-09-24T09:47:39.965Z,22.98
2017-09-24T09:50:06.394Z,16.33
2017-09-24T09:52:32.865Z,20.27
2017-09-24T09:54:59.359Z,19.35
2017-09-24T09:57:25.795Z,33.67
2017-09-24T09:59:52.225Z,20.60
2017-09-24T10:02:19.405Z,29.50
2017-09-24T10:04:45.861Z,28.75
2017-09-24T10:07:25.324Z,25.17
2017-09-24T10:23:21.203Z,18.23
2017-09-24T10:25:48.426Z,16.90
2017-09-24T10:41:42.765Z,12.40
2017-09-24T10:44:09.234Z,12.48
2017-09-24T10:46:35.654Z,12.35
2017-09-24T10:49:02.383Z,13.55
2017-09-24T10:51:28.821Z,11.57
2017-09-24T10:53:55.329Z,13.57
2017-09-24T10:56:21.784Z,13.95
2017-09-24T10:58:48.209Z,13.93
2017-09-24T11:01:14.702Z,13.38
2017-09-24T11:03:41.120Z,11.73
2017-09-24T11:06:07.549Z,9.88
2017-09-24T11:08:34.760Z,11.15
2017-09-24T11:11:01.198Z,11.70
2017-09-24T11:13:27.765Z,11.25
2017-09-24T11:15:54.210Z,12.68
2017-09-24T11:18:21.409Z,12.60
2017-09-24T11:20:47.866Z,14.23
2017-09-24T11:23:14.294Z,8.63
2017-09-24T11:25:40.694Z,8.15
2017-09-24T11:28:07.225Z,9.48
2017-09-24T11:30:33.669Z,8.40
2017-09-24T11:33:00.101Z,9.50
2017-09-24T11:35:26.533Z,7.85
2017-09-24T11:37:52.967Z,7.90
2017-09-24T11:40:19.418Z,8.90
2017-09-24T11:42:45.845Z,8.27
2017-09-24T11:45:12.319Z,7.97
2017-09-24T11:47:39.548Z,9.38
2017-09-24T11:50:06.024Z,7.50
2017-09-24T11:52:32.529Z,9.18
2017-09-24T11:54:58.997Z,9.50
2017-09-24T11:57:26.198Z,9.80
2017-09-24T11:59:52.727Z,8.70
2017-09-24T12:02:19.164Z,8.52
2017-09-24T12:04:45.623Z,7.62
2017-09-24T12:07:12.062Z,7.70
2017-09-24T12:09:40.337Z,8.80
2017-09-24T12:12:06.737Z,8.18
2017-09-24T12:14:33.154Z,8.57
2017-09-24T12:16:59.640Z,8.05
2017-09-24T12:19:26.105Z,8.38
2017-09-24T12:21:52.600Z,9.25
2017-09-24T12:24:19.026Z,7.97
2017-09-24T12:26:45.481Z,8.32
2017-09-24T12:29:11.948Z,8.90
2017-09-24T12:31:38.447Z,9.57
2017-09-24T12:34:05.647Z,8.95
2017-09-24T12:36:32.124Z,8.40
2017-09-24T12:38:59.282Z,9.63
2017-09-24T12:41:26.428Z,9.02
2017-09-24T12:43:52.944Z,8.32
2017-09-24T12:46:19.385Z,8.48
2017-09-24T12:48:45.865Z,6.18
2017-09-24T12:51:12.333Z,8.32
2017-09-24T12:53:38.766Z,7.25
2017-09-24T12:56:05.195Z,7.82
2017-09-24T12:58:31.624Z,7.70
2017-09-24T13:00:58.145Z,7.05
2017-09-24T13:03:24.586Z,6.30
2017-09-24T13:05:51.805Z,6.87
2017-09-24T13:08:18.221Z,7.70
2017-09-24T13:10:45.393Z,7.68
2017-09-24T13:13:11.853Z,6.55
2017-09-24T13:15:38.312Z,6.55
2017-09-24T13:18:04.764Z,6.97
2017-09-24T13:20:31.203Z,6.60
2017-09-24T13:22:58.411Z,6.15
2017-09-24T13:25:24.830Z,7.43
2017-09-24T13:27:51.307Z,7.22
2017-09-24T13:30:18.514Z,8.50
2017-09-24T13:32:44.945Z,6.50
2017-09-24T13:35:11.385Z,6.70
2017-09-24T13:37:37.839Z,6.90
2017-09-24T13:40:04.325Z,5.65
2017-09-24T13:42:30.749Z,6.40
2017-09-24T13:44:57.216Z,6.43
2017-09-24T13:47:23.655Z,6.37
2017-09-24T13:49:50.139Z,5.35
2017-09-24T13:52:17.332Z,6.90
2017-09-24T13:54:43.768Z,6.55
2017-09-24T13:57:10.294Z,6.07
2017-09-24T13:59:36.790Z,6.30
2017-09-24T14:02:03.943Z,6.03
2017-09-24T14:04:30.428Z,5.75
2017-09-24T14:06:56.886Z,6.40
2017-09-24T14:09:23.342Z,6.25
2017-09-24T14:11:50.547Z,8.55
2017-09-24T14:14:17.013Z,6.43
2017-09-24T14:16:43.443Z,7.68
2017-09-24T14:19:09.888Z,7.30
2017-09-24T14:21:37.130Z,6.55
2017-09-24T14:24:03.624Z,6.72
2017-09-24T14:26:30.184Z,7.45
2017-09-24T14:28:56.654Z,7.40
2017-09-24T14:31:23.917Z,7.53
2017-09-24T14:33:50.403Z,6.95
2017-09-24T14:36:16.861Z,7.60
2017-09-24T14:38:44.044Z,7.97
2017-09-24T14:41:10.524Z,6.90
2017-09-24T14:43:36.989Z,6.18
2017-09-24T14:46:03.417Z,5.95
2017-09-24T14:48:29.883Z,5.70
2017-09-24T14:50:56.392Z,6.65
2017-09-24T14:53:23.554Z,7.10
2017-09-24T14:55:50.003Z,6.50
2017-09-24T14:58:16.443Z,6.97
2017-09-24T15:00:42.893Z,7.18
2017-09-24T15:03:09.303Z,6.22
2017-09-24T15:05:35.746Z,7.05
2017-09-24T15:08:02.255Z,7.10
2017-09-24T15:10:28.801Z,6.70
2017-09-24T15:12:55.293Z,6.97
2017-09-24T15:15:21.797Z,6.70
2017-09-24T15:17:48.327Z,7.10
2017-09-24T15:20:14.847Z,7.00
2017-09-24T15:22:41.361Z,6.53
2017-09-24T15:25:07.837Z,6.28
2017-09-24T15:27:34.318Z,7.18
2017-09-24T15:30:00.807Z,7.10
2017-09-24T15:32:27.256Z,8.25
2017-09-24T15:34:53.675Z,8.77
2017-09-24T15:37:20.213Z,8.63
2017-09-24T15:39:46.654Z,8.75
2017-09-24T15:42:13.071Z,8.85
2017-09-24T15:44:39.567Z,8.95
2017-09-24T15:47:06.021Z,10.18
2017-09-24T15:49:32.506Z,8.88
2017-09-24T15:51:59.670Z,10.00
2017-09-24T15:54:26.134Z,9.32
2017-09-24T15:56:52.657Z,9.20
2017-09-24T15:59:19.166Z,10.20
2017-09-24T16:01:46.358Z,10.10
2017-09-24T16:04:12.797Z,9.73
2017-09-24T16:06:39.201Z,10.10
2017-09-24T16:09:05.794Z,9.40
2017-09-24T16:11:32.272Z,9.55
2017-09-24T16:13:58.733Z,10.30
2017-09-24T16:16:25.175Z,9.20
2017-09-24T16:18:51.627Z,8.70
2017-09-24T16:21:18.072Z,8.68
2017-09-24T16:23:45.259Z,8.75
2017-09-24T16:26:11.743Z,11.95
2017-09-24T16:28:38.906Z,11.00
2017-09-24T16:31:06.105Z,8.75
2017-09-24T16:33:32.584Z,10.02
2017-09-24T16:35:59.022Z,17.42
2017-09-24T16:38:26.177Z,16.37
2017-09-24T16:40:53.372Z,52.55
2017-09-24T16:43:19.906Z,26.50
2017-09-24T16:45:46.377Z,24.67
2017-09-24T16:48:12.804Z,12.00
2017-09-24T16:50:39.275Z,9.68
2017-09-24T16:53:05.705Z,9.93
2017-09-24T16:55:32.256Z,9.60
2017-09-24T16:57:58.677Z,9.60
2017-09-24T17:00:25.144Z,9.95
2017-09-24T17:02:51.575Z,9.75
2017-09-24T17:05:18.077Z,11.77
2017-09-24T17:07:44.652Z,11.60
2017-09-24T17:10:11.081Z,11.52
2017-09-24T17:12:37.578Z,11.57
2017-09-24T17:15:04.087Z,12.55
2017-09-24T17:17:31.282Z,12.63
2017-09-24T17:19:57.824Z,11.82
2017-09-24T17:22:25.052Z,13.25
2017-09-24T17:24:51.556Z,12.52
2017-09-24T17:27:18.845Z,13.23
2017-09-24T17:29:45.276Z,12.32
2017-09-24T17:32:11.749Z,12.88
2017-09-24T17:34:38.212Z,12.63
2017-09-24T17:37:05.401Z,13.30
2017-09-24T17:39:31.918Z,14.23
2017-09-24T17:41:58.367Z,22.83
2017-09-24T17:44:25.665Z,22.02
2017-09-24T17:46:52.181Z,23.75
2017-09-24T17:49:19.438Z,19.70
2017-09-24T17:51:45.961Z,15.20
2017-09-24T17:54:12.455Z,17.12
2017-09-24T17:56:38.918Z,15.27
2017-09-24T17:59:05.450Z,14.98
2017-09-24T18:01:31.954Z,17.70
2017-09-24T18:03:58.415Z,16.58
2017-09-24T18:06:24.896Z,15.95
2017-09-24T18:08:51.334Z,16.85
2017-09-24T18:11:18.556Z,17.70
2017-09-24T18:13:44.990Z,16.05
2017-09-24T18:16:11.483Z,17.77
2017-09-24T18:18:37.907Z,15.98
2017-09-24T18:21:04.432Z,17.50
2017-09-24T18:23:31.665Z,18.17
2017-09-24T18:25:58.188Z,17.85
2017-09-24T18:28:25.535Z,20.90
2017-09-24T18:30:51.967Z,17.52
2017-09-24T18:33:19.231Z,16.67
2017-09-24T18:35:45.714Z,17.85
2017-09-24T18:38:12.276Z,17.65
2017-09-24T18:40:38.725Z,16.45
2017-09-24T18:43:05.233Z,17.35
2017-09-24T18:45:31.706Z,15.70
2017-09-24T18:47:58.206Z,16.25
2017-09-24T18:50:24.697Z,15.13
2017-09-24T18:52:51.853Z,16.27
2017-09-24T18:55:19.055Z,15.40
2017-09-24T18:57:45.534Z,14.13
2017-09-24T19:00:14.364Z,12.90
2017-09-24T19:02:40.972Z,11.15
2017-09-24T19:05:07.566Z,10.75
2017-09-24T19:07:34.174Z,9.10
2017-09-24T19:10:00.676Z,9.15
2017-09-24T19:12:27.186Z,8.65
2017-09-24T19:14:53.646Z,7.97
2017-09-24T19:17:20.094Z,8.30
2017-09-24T19:19:46.716Z,8.52
2017-09-24T19:22:13.287Z,8.65
2017-09-24T19:24:39.770Z,7.95
2017-09-24T19:27:06.316Z,9.05
2017-09-24T19:29:32.791Z,7.45
2017-09-24T19:32:00.998Z,8.30
2017-09-24T19:34:28.224Z,7.53
2017-09-24T19:36:54.686Z,9.18
2017-09-24T19:39:21.289Z,7.25
2017-09-24T19:41:47.949Z,7.50
2017-09-24T19:44:14.476Z,5.95
2017-09-24T19:46:40.994Z,7.00
2017-09-24T19:49:07.719Z,6.50
2017-09-24T19:51:34.234Z,6.55
2017-09-24T19:54:00.691Z,6.68
2017-09-24T19:56:27.389Z,6.40
2017-09-24T19:58:54.445Z,7.05
2017-09-24T20:01:21.157Z,7.22
2017-09-24T20:03:47.634Z,7.00
2017-09-24T20:06:14.331Z,6.05
2017-09-24T20:08:40.965Z,6.37
2017-09-24T20:11:08.202Z,7.62
2017-09-24T20:13:34.621Z,7.85
2017-09-24T20:16:01.398Z,7.30
2017-09-24T20:18:28.624Z,7.65
2017-09-24T20:20:55.090Z,7.65
2017-09-24T20:23:22.307Z,9.07
2017-09-24T20:25:48.793Z,6.78
2017-09-24T20:28:15.279Z,7.40
2017-09-24T20:30:41.766Z,6.97
2017-09-24T20:33:08.205Z,7.12
2017-09-24T20:35:34.640Z,7.50
2017-09-24T20:38:01.126Z,7.15
2017-09-24T20:40:27.550Z,6.90
2017-09-24T20:42:53.989Z,8.00
2017-09-24T20:45:21.235Z,6.05
2017-09-24T20:47:47.714Z,8.40
2017-09-24T20:50:14.199Z,6.93
2017-09-24T20:52:40.662Z,6.70
2017-09-24T20:55:07.877Z,7.55
2017-09-24T20:57:34.469Z,6.55
2017-09-24T21:00:01.581Z,6.82
2017-09-24T21:02:28.115Z,8.05
2017-09-24T21:04:55.362Z,6.85
2017-09-24T21:07:21.788Z,7.00
2017-09-24T21:09:48.973Z,8.10
2017-09-24T21:12:16.194Z,7.37
2017-09-24T21:14:43.378Z,7.50
2017-09-24T21:17:10.567Z,8.32
2017-09-24T21:19:37.020Z,6.72
2017-09-24T21:22:03.424Z,6.85
2017-09-24T21:24:29.870Z,7.40
2017-09-24T21:26:56.343Z,7.18
2017-09-24T21:29:22.785Z,8.10
2017-09-24T21:31:49.982Z,7.97
2017-09-24T21:34:16.393Z,8.45
2017-09-24T21:36:42.857Z,8.63
2017-09-24T21:39:09.293Z,9.20
2017-09-24T21:41:35.714Z,8.05
2017-09-24T21:44:02.182Z,7.93
2017-09-24T21:46:28.609Z,7.07
2017-09-24T21:48:55.954Z,8.27
2017-09-24T21:51:22.381Z,8.20
2017-09-24T21:53:48.858Z,8.18
2017-09-24T21:56:15.306Z,8.20
2017-09-24T21:58:42.567Z,7.82
2017-09-24T22:01:08.981Z,8.50
2017-09-24T22:03:35.461Z,8.73
2017-09-24T22:06:01.873Z,8.10
2017-09-24T22:08:28.311Z,9.07
2017-09-24T22:10:54.774Z,9.55
2017-09-24T22:13:21.174Z,8.75
2017-09-24T22:15:47.670Z,9.70
2017-09-24T22:18:14.184Z,8.90
2017-09-24T22:20:41.370Z,8.55
2017-09-24T22:23:07.813Z,10.00
2017-09-24T22:25:34.250Z,9.30
2017-09-24T22:28:00.681Z,11.75
2017-09-24T22:30:27.169Z,11.23
2017-09-24T22:32:53.629Z,10.43
2017-09-24T22:35:20.069Z,10.23
2017-09-24T22:37:46.485Z,10.68
2017-09-24T22:40:13.650Z,10.75
2017-09-24T22:42:40.802Z,10.45
2017-09-24T22:45:08.029Z,11.40
2017-09-24T22:47:35.178Z,11.43
2017-09-24T22:50:01.590Z,12.85
2017-09-24T22:52:28.793Z,11.55
2017-09-24T22:54:55.246Z,11.15
2017-09-24T22:57:21.657Z,11.52
2017-09-24T22:59:48.108Z,11.10
2017-09-24T23:02:15.265Z,11.68
2017-09-24T23:04:41.681Z,12.75
2017-09-24T23:07:08.175Z,12.13
2017-09-24T23:09:35.380Z,12.13
2017-09-24T23:12:01.777Z,12.60
2017-09-24T23:14:28.217Z,13.00
2017-09-24T23:16:54.681Z,12.30
2017-09-24T23:19:21.171Z,12.88
2017-09-24T23:21:48.347Z,13.25
2017-09-24T23:24:14.748Z,12.68
2017-09-24T23:26:41.334Z,13.38
2017-09-24T23:29:07.733Z,13.13
2017-09-24T23:31:34.918Z,14.80
2017-09-24T23:34:01.334Z,14.00
2017-09-24T23:36:27.777Z,14.75
2017-09-24T23:38:54.209Z,14.30
2017-09-24T23:41:20.633Z,14.30
2017-09-24T23:43:47.082Z,14.70
2017-09-24T23:46:13.518Z,14.35
2017-09-24T23:48:39.921Z,16.10
2017-09-24T23:51:06.353Z,17.30
2017-09-24T23:53:32.760Z,18.33
2017-09-24T23:55:59.949Z,16.45
2017-09-24T23:58:26.410Z,15.43
